createdAt,value
2023-05-12T00:00:31.064Z,6.75
2023-05-12T00:02:57.382Z,5.88
2023-05-12T00:05:23.977Z,8.00
2023-05-12T00:07:50.270Z,6.18
2023-05-12T00:10:16.679Z,7.95
2023-05-12T00:12:43.121Z,6.35
2023-05-12T00:15:10.037Z,6.53
2023-05-12T00:17:36.640Z,6.63
2023-05-12T00:20:03.224Z,7.72
2023-05-12T00:22:29.582Z,6.53
2023-05-12T00:24:56.004Z,5.57
2023-05-12T00:27:22.959Z,6.15
2023-05-12T00:29:49.618Z,5.47
2023-05-12T00:32:16.021Z,5.95
2023-05-12T00:34:42.317Z,7.15
2023-05-12T00:37:10.119Z,7.38
2023-05-12T00:39:36.410Z,6.75
2023-05-12T00:42:02.777Z,8.15
2023-05-12T00:44:29.088Z,6.72
2023-05-12T00:46:55.488Z,5.60
2023-05-12T00:49:22.096Z,9.75
2023-05-12T00:51:48.495Z,6.90
2023-05-12T00:54:16.040Z,8.40
2023-05-12T00:56:42.402Z,7.18
2023-05-12T00:59:09.050Z,7.75
2023-05-12T01:01:35.922Z,7.25
2023-05-12T01:04:02.952Z,6.40
2023-05-12T01:06:37.784Z,6.45
2023-05-12T01:09:04.563Z,7.40
2023-05-12T01:11:30.887Z,6.30
2023-05-12T01:13:57.260Z,7.18
2023-05-12T01:16:28.882Z,7.15
2023-05-12T01:18:56.690Z,6.43
2023-05-12T01:21:23.172Z,7.78
2023-05-12T01:23:56.822Z,6.78
2023-05-12T01:26:23.725Z,6.70
2023-05-12T01:28:51.142Z,6.53
2023-05-12T01:33:47.392Z,7.53
2023-05-12T01:36:13.724Z,7.07
2023-05-12T01:38:40.112Z,7.72
2023-05-12T01:41:06.415Z,7.45
2023-05-12T01:43:32.735Z,7.32
2023-05-12T01:45:59.266Z,6.82
2023-05-12T01:48:25.809Z,7.00
2023-05-12T01:50:52.180Z,8.38
2023-05-12T01:53:18.444Z,6.75
2023-05-12T01:55:44.787Z,7.50
2023-05-12T01:58:11.251Z,7.53
2023-05-12T02:00:37.930Z,8.07
2023-05-12T02:03:04.323Z,7.25
2023-05-12T02:05:30.720Z,6.63
2023-05-12T02:07:57.097Z,7.78
2023-05-12T02:10:23.586Z,8.10
2023-05-12T02:12:50.054Z,8.93
2023-05-12T02:15:16.356Z,8.00
2023-05-12T02:17:42.804Z,8.13
2023-05-12T02:20:09.695Z,9.80
2023-05-12T02:22:36.002Z,9.60
2023-05-12T02:25:02.470Z,8.88
2023-05-12T02:27:28.797Z,7.30
2023-05-12T02:29:55.208Z,8.13
2023-05-12T02:32:21.502Z,8.52
2023-05-12T02:34:47.805Z,8.63
2023-05-12T02:37:14.303Z,9.77
2023-05-12T02:39:40.569Z,7.72
2023-05-12T02:42:07.168Z,8.27
2023-05-12T02:44:33.564Z,8.50
2023-05-12T02:46:59.845Z,8.70
2023-05-12T02:49:26.203Z,7.38
2023-05-12T02:51:52.508Z,7.97
2023-05-12T02:54:18.831Z,6.90
2023-05-12T02:56:45.195Z,6.20
2023-05-12T02:59:11.497Z,8.07
2023-05-12T03:01:38.081Z,6.53
2023-05-12T03:04:04.578Z,7.15
2023-05-12T03:06:30.954Z,7.18
2023-05-12T03:08:57.410Z,7.25
2023-05-12T03:11:23.745Z,7.97
2023-05-12T03:13:50.044Z,7.70
2023-05-12T03:16:17.808Z,9.18
2023-05-12T03:18:45.186Z,9.20
2023-05-12T03:21:11.581Z,10.77
2023-05-12T03:23:37.893Z,9.80
2023-05-12T03:26:04.214Z,8.52
2023-05-12T03:28:30.672Z,8.40
2023-05-12T03:30:56.980Z,8.63
2023-05-12T03:33:23.408Z,7.90
2023-05-12T03:35:49.699Z,8.23
2023-05-12T03:38:16.089Z,9.60
2023-05-12T03:40:42.376Z,9.63
2023-05-12T03:43:08.656Z,9.75
2023-05-12T03:45:34.957Z,8.35
2023-05-12T03:48:01.270Z,8.07
2023-05-12T03:50:27.740Z,8.90
2023-05-12T03:52:54.129Z,7.97
2023-05-12T03:55:20.440Z,8.55
2023-05-12T03:57:48.069Z,8.10
2023-05-12T04:00:14.679Z,8.50
2023-05-12T04:02:41.029Z,8.10
2023-05-12T04:05:07.776Z,8.68
2023-05-12T04:07:34.092Z,9.60
2023-05-12T04:10:00.554Z,8.43
2023-05-12T04:12:26.849Z,6.97
2023-05-12T04:14:53.767Z,9.57
2023-05-12T04:17:20.127Z,9.13
2023-05-12T04:19:46.472Z,9.27
2023-05-12T04:22:12.820Z,10.13
2023-05-12T04:24:39.086Z,9.02
2023-05-12T04:27:06.386Z,9.63
2023-05-12T04:29:32.768Z,7.80
2023-05-12T04:31:59.181Z,7.70
2023-05-12T04:34:25.513Z,9.90
2023-05-12T04:36:51.818Z,8.95
2023-05-12T04:39:18.226Z,8.75
2023-05-12T04:41:44.489Z,9.25
2023-05-12T04:44:10.819Z,10.02
2023-05-12T04:46:37.241Z,7.78
2023-05-12T04:49:03.561Z,9.10
2023-05-12T04:51:29.912Z,12.80
2023-05-12T04:53:56.197Z,9.63
2023-05-12T04:56:22.481Z,8.85
2023-05-12T04:58:48.886Z,8.07
2023-05-12T05:01:15.284Z,8.48
2023-05-12T05:03:41.735Z,7.00
2023-05-12T05:06:08.122Z,7.03
2023-05-12T05:08:34.508Z,7.25
2023-05-12T05:11:00.820Z,7.95
2023-05-12T05:13:27.119Z,8.10
2023-05-12T05:15:54.404Z,7.13
2023-05-12T05:18:23.792Z,8.07
2023-05-12T05:20:57.284Z,6.97
2023-05-12T05:23:25.059Z,9.18
2023-05-12T05:25:51.391Z,6.93
2023-05-12T05:28:17.693Z,6.85
2023-05-12T05:30:44.072Z,6.35
2023-05-12T05:33:10.429Z,7.68
2023-05-12T05:35:36.815Z,7.38
2023-05-12T05:38:03.170Z,7.97
2023-05-12T05:40:33.815Z,7.00
2023-05-12T05:43:05.278Z,7.60
2023-05-12T05:45:31.811Z,7.60
2023-05-12T05:47:58.124Z,8.43
2023-05-12T05:50:24.473Z,8.57
2023-05-12T05:52:50.800Z,8.05
2023-05-12T05:55:17.299Z,8.02
2023-05-12T05:57:43.698Z,8.73
2023-05-12T06:00:10.562Z,8.25
2023-05-12T06:02:36.998Z,8.80
2023-05-12T06:05:03.557Z,7.97
2023-05-12T06:07:29.872Z,6.50
2023-05-12T06:09:56.123Z,7.18
2023-05-12T06:12:22.441Z,8.05
2023-05-12T06:14:48.725Z,6.55
2023-05-12T06:17:15.070Z,7.72
2023-05-12T06:19:41.445Z,8.20
2023-05-12T06:22:07.733Z,7.03
2023-05-12T06:24:34.025Z,6.65
2023-05-12T06:27:00.384Z,6.80
2023-05-12T06:29:26.742Z,8.20
2023-05-12T06:31:53.295Z,8.02
2023-05-12T06:34:20.162Z,6.82
2023-05-12T06:36:46.564Z,7.38
2023-05-12T06:39:12.962Z,7.13
2023-05-12T06:41:39.327Z,9.07
2023-05-12T06:44:05.664Z,6.78
2023-05-12T06:46:32.596Z,8.65
2023-05-12T06:48:59.304Z,8.00
2023-05-12T06:51:26.087Z,7.47
2023-05-12T06:53:52.396Z,7.88
2023-05-12T06:56:18.689Z,7.25
2023-05-12T06:58:45.002Z,7.30
2023-05-12T07:01:11.353Z,6.90
2023-05-12T07:03:37.778Z,6.55
2023-05-12T07:06:04.457Z,5.80
2023-05-12T07:08:30.831Z,6.93
2023-05-12T07:10:59.933Z,5.80
2023-05-12T07:13:26.463Z,5.25
2023-05-12T07:15:52.793Z,6.18
2023-05-12T07:18:19.148Z,5.45
2023-05-12T07:20:45.517Z,6.00
2023-05-12T07:23:12.509Z,5.90
2023-05-12T07:25:38.955Z,5.43
2023-05-12T07:28:05.427Z,5.25
2023-05-12T07:30:31.862Z,5.78
2023-05-12T07:32:58.215Z,6.60
2023-05-12T07:35:24.537Z,4.68
2023-05-12T07:37:50.843Z,5.10
2023-05-12T07:40:17.234Z,5.22
2023-05-12T07:42:43.555Z,5.47
2023-05-12T07:45:10.226Z,5.25
2023-05-12T07:47:36.580Z,4.82
2023-05-12T07:50:03.128Z,4.43
2023-05-12T07:52:29.412Z,6.75
2023-05-12T07:54:56.703Z,3.70
2023-05-12T07:59:49.691Z,3.67
2023-05-12T08:02:16.066Z,3.78
2023-05-12T08:04:44.380Z,4.63
2023-05-12T08:07:10.928Z,4.72
2023-05-12T08:09:37.215Z,5.88
2023-05-12T08:12:03.739Z,4.70
2023-05-12T08:14:30.032Z,4.80
2023-05-12T08:16:56.413Z,4.10
2023-05-12T08:19:22.754Z,3.28
2023-05-12T08:21:49.051Z,4.40
2023-05-12T08:24:15.368Z,3.80
2023-05-12T08:26:41.682Z,3.83
2023-05-12T08:29:07.999Z,4.50
2023-05-12T08:31:34.456Z,3.80
2023-05-12T08:34:09.761Z,3.95
2023-05-12T08:36:37.950Z,3.65
2023-05-12T08:39:04.442Z,3.95
2023-05-12T08:41:33.468Z,3.42
2023-05-12T08:44:00.258Z,3.42
2023-05-12T08:46:26.735Z,3.28
2023-05-12T08:48:53.856Z,3.10
2023-05-12T08:51:20.818Z,3.17
2023-05-12T08:53:47.629Z,3.67
2023-05-12T08:58:46.879Z,4.40
2023-05-12T09:01:13.576Z,3.40
2023-05-12T09:03:40.103Z,3.58
2023-05-12T09:06:07.210Z,5.00
2023-05-12T09:08:34.029Z,2.95
2023-05-12T09:11:01.112Z,2.97
2023-05-12T09:13:38.591Z,3.00
2023-05-12T09:16:11.155Z,3.38
2023-05-12T09:18:55.256Z,4.97
2023-05-12T09:21:22.259Z,3.38
2023-05-12T09:23:52.966Z,3.10
2023-05-12T09:26:19.462Z,4.95
2023-05-12T09:28:45.761Z,3.40
2023-05-12T09:31:20.182Z,4.90
2023-05-12T09:33:46.637Z,3.88
2023-05-12T09:36:23.870Z,3.97
2023-05-12T09:39:06.399Z,4.07
2023-05-12T09:41:44.146Z,3.60
2023-05-12T09:44:14.692Z,4.05
2023-05-12T09:46:41.032Z,3.72
2023-05-12T09:49:07.367Z,4.82
2023-05-12T09:51:33.760Z,3.25
2023-05-12T09:54:00.811Z,5.03
2023-05-12T09:56:28.865Z,4.43
2023-05-12T09:58:56.518Z,4.38
2023-05-12T10:01:24.250Z,3.88
2023-05-12T10:03:58.228Z,3.47
2023-05-12T10:06:33.216Z,3.22
2023-05-12T10:09:16.027Z,2.90
2023-05-12T10:11:44.003Z,3.85
2023-05-12T10:14:10.703Z,2.70
2023-05-12T10:16:38.408Z,2.80
2023-05-12T10:19:05.834Z,2.95
2023-05-12T10:21:34.413Z,2.92
2023-05-12T10:24:03.588Z,4.35
2023-05-12T10:26:32.326Z,3.15
2023-05-12T10:28:59.281Z,2.63
2023-05-12T10:31:26.693Z,2.60
2023-05-12T10:34:01.084Z,3.03
2023-05-12T10:36:27.664Z,3.08
2023-05-12T10:38:54.781Z,2.60
2023-05-12T10:43:57.826Z,2.50
2023-05-12T10:46:24.334Z,2.63
2023-05-12T10:49:10.586Z,2.47
2023-05-12T10:51:42.904Z,2.83
2023-05-12T10:54:11.587Z,3.33
2023-05-12T10:56:38.141Z,2.72
2023-05-12T10:59:19.747Z,2.40
2023-05-12T11:02:13.451Z,3.03
2023-05-12T11:04:48.288Z,4.10
2023-05-12T11:07:16.802Z,3.15
2023-05-12T11:09:56.709Z,3.67
2023-05-12T11:12:25.995Z,3.75
2023-05-12T11:14:52.450Z,3.13
2023-05-12T11:17:18.812Z,2.92
2023-05-12T11:19:47.468Z,2.33
2023-05-12T11:22:16.327Z,2.85
2023-05-12T11:24:42.921Z,2.28
2023-05-12T11:27:14.830Z,2.35
2023-05-12T11:29:41.672Z,2.50
2023-05-12T11:32:11.708Z,2.45
2023-05-12T11:34:38.891Z,2.85
2023-05-12T11:39:32.281Z,3.45
2023-05-12T11:42:12.911Z,3.72
2023-05-12T11:44:49.851Z,2.40
2023-05-12T11:47:17.239Z,2.45
2023-05-12T11:49:47.516Z,3.22
2023-05-12T11:52:14.146Z,2.30
2023-05-12T11:54:48.203Z,3.35
2023-05-12T11:57:33.881Z,1.83
2023-05-12T12:00:02.814Z,4.32
2023-05-12T12:02:29.380Z,3.08
2023-05-12T12:04:56.185Z,2.67
2023-05-12T12:07:36.374Z,2.80
2023-05-12T12:10:16.821Z,3.42
2023-05-12T12:12:44.255Z,4.18
2023-05-12T12:15:11.295Z,4.53
2023-05-12T12:17:38.173Z,6.93
2023-05-12T12:20:05.152Z,3.63
2023-05-12T12:22:31.450Z,4.07
2023-05-12T12:24:57.782Z,3.78
2023-05-12T12:27:24.099Z,3.38
2023-05-12T12:29:50.368Z,4.20
2023-05-12T12:32:16.673Z,2.65
2023-05-12T12:34:43.094Z,3.10
2023-05-12T12:37:09.487Z,2.70
2023-05-12T12:39:35.907Z,2.38
2023-05-12T12:42:02.489Z,3.40
2023-05-12T12:44:28.902Z,4.07
2023-05-12T12:46:55.295Z,2.92
2023-05-12T12:49:21.581Z,2.92
2023-05-12T12:51:48.152Z,3.33
2023-05-12T12:54:14.736Z,2.38
2023-05-12T12:56:41.168Z,2.55
2023-05-12T12:59:07.572Z,4.65
2023-05-12T13:01:34.024Z,2.45
2023-05-12T13:04:00.511Z,4.47
2023-05-12T13:06:27.189Z,2.58
2023-05-12T13:08:53.602Z,2.55
2023-05-12T13:11:20.049Z,2.67
2023-05-12T13:13:46.346Z,2.72
2023-05-12T13:16:12.659Z,3.47
2023-05-12T13:18:38.993Z,3.88
2023-05-12T13:21:05.553Z,2.85
2023-05-12T13:23:32.007Z,2.53
2023-05-12T13:25:58.491Z,3.08
2023-05-12T13:28:24.795Z,4.30
2023-05-12T13:30:54.468Z,4.60
2023-05-12T13:33:21.257Z,4.03
2023-05-12T13:35:47.559Z,2.83
2023-05-12T13:38:13.963Z,3.15
2023-05-12T13:40:40.301Z,2.90
2023-05-12T13:43:06.584Z,4.35
2023-05-12T13:45:32.891Z,3.58
2023-05-12T13:47:59.190Z,3.95
2023-05-12T13:50:25.734Z,3.90
2023-05-12T13:52:52.022Z,3.00
2023-05-12T13:55:21.408Z,4.38
2023-05-12T13:57:48.225Z,2.95
2023-05-12T14:00:14.947Z,4.47
2023-05-12T14:02:41.333Z,3.95
2023-05-12T14:05:08.303Z,3.90
2023-05-12T14:07:34.646Z,4.50
2023-05-12T14:10:01.150Z,4.80
2023-05-12T14:12:27.779Z,3.85
2023-05-12T14:14:54.773Z,3.63
2023-05-12T14:17:24.477Z,3.38
2023-05-12T14:19:50.779Z,4.97
2023-05-12T14:22:25.343Z,3.70
2023-05-12T14:24:52.768Z,3.47
2023-05-12T14:27:19.094Z,3.95
2023-05-12T14:29:45.396Z,2.42
2023-05-12T14:32:11.823Z,3.10
2023-05-12T14:34:38.151Z,4.07
2023-05-12T14:37:04.649Z,4.82
2023-05-12T14:39:31.043Z,3.85
2023-05-12T14:41:57.455Z,2.78
2023-05-12T14:44:23.783Z,4.85
2023-05-12T14:46:50.098Z,3.78
2023-05-12T14:49:16.503Z,2.88
2023-05-12T14:51:42.785Z,3.30
2023-05-12T14:54:21.910Z,2.95
2023-05-12T14:56:51.492Z,3.70
2023-05-12T14:59:17.808Z,3.20
2023-05-12T15:01:44.221Z,2.83
2023-05-12T15:04:10.701Z,2.78
2023-05-12T15:06:36.970Z,4.20
2023-05-12T15:09:03.780Z,3.53
2023-05-12T15:11:30.188Z,3.85
2023-05-12T15:13:56.586Z,4.13
2023-05-12T15:16:22.916Z,5.53
2023-05-12T15:18:49.228Z,3.03
2023-05-12T15:21:15.615Z,2.92
2023-05-12T15:23:41.898Z,6.03
2023-05-12T15:26:27.040Z,4.75
2023-05-12T15:28:54.477Z,3.95
2023-05-12T15:31:21.006Z,4.28
2023-05-12T15:33:47.361Z,2.75
2023-05-12T15:36:13.899Z,3.17
2023-05-12T15:38:40.178Z,3.10
2023-05-12T15:41:06.573Z,3.13
2023-05-12T15:43:32.888Z,2.80
2023-05-12T15:45:59.327Z,4.55
2023-05-12T15:48:25.747Z,3.30
2023-05-12T15:50:52.182Z,4.18
2023-05-12T15:53:18.494Z,3.00
2023-05-12T15:55:44.781Z,3.20
2023-05-12T15:58:11.206Z,3.00
2023-05-12T16:00:37.779Z,4.53
2023-05-12T16:03:04.182Z,3.42
2023-05-12T16:05:30.563Z,2.53
2023-05-12T16:07:56.959Z,3.30
2023-05-12T16:10:23.240Z,5.30
2023-05-12T16:12:49.549Z,2.50
2023-05-12T16:15:15.918Z,2.60
2023-05-12T16:17:42.216Z,4.07
2023-05-12T16:20:09.048Z,4.57
2023-05-12T16:22:35.413Z,2.80
2023-05-12T16:25:01.737Z,2.50
2023-05-12T16:27:28.018Z,2.80
2023-05-12T16:29:54.494Z,3.22
2023-05-12T16:32:20.868Z,2.70
2023-05-12T16:34:47.166Z,3.15
2023-05-12T16:37:13.537Z,2.75
2023-05-12T16:39:39.878Z,2.45
2023-05-12T16:42:06.610Z,2.92
2023-05-12T16:44:32.935Z,4.50
2023-05-12T16:46:59.208Z,4.63
2023-05-12T16:49:25.484Z,3.67
2023-05-12T16:51:51.833Z,3.45
2023-05-12T16:54:18.145Z,4.18
2023-05-12T16:56:44.446Z,3.50
2023-05-12T16:59:10.943Z,4.35
2023-05-12T17:01:37.305Z,4.38
2023-05-12T17:04:03.692Z,3.35
2023-05-12T17:06:30.159Z,3.78
2023-05-12T17:08:56.601Z,3.78
2023-05-12T17:11:23.227Z,3.33
2023-05-12T17:13:49.528Z,3.38
2023-05-12T17:16:16.041Z,2.65
2023-05-12T17:21:11.740Z,3.80
2023-05-12T17:23:38.089Z,4.68
2023-05-12T17:26:04.646Z,4.60
2023-05-12T17:28:30.986Z,4.03
2023-05-12T17:30:57.415Z,4.30
2023-05-12T17:33:23.779Z,4.03
2023-05-12T17:36:03.901Z,2.65
2023-05-12T17:38:36.430Z,4.43
2023-05-12T17:41:02.901Z,5.40
2023-05-12T17:43:29.385Z,5.57
2023-05-12T17:45:56.488Z,5.30
2023-05-12T17:48:22.867Z,3.25
2023-05-12T17:50:49.214Z,3.00
2023-05-12T17:53:15.555Z,3.97
2023-05-12T17:55:41.843Z,2.75
2023-05-12T17:58:08.219Z,3.28
2023-05-12T18:00:34.544Z,8.02
2023-05-12T18:03:01.001Z,4.25
2023-05-12T18:05:27.424Z,2.38
2023-05-12T18:07:53.757Z,4.03
2023-05-12T18:10:20.114Z,2.42
2023-05-12T18:12:46.453Z,3.83
2023-05-12T18:15:12.749Z,2.47
2023-05-12T18:17:39.162Z,2.53
2023-05-12T18:20:06.301Z,2.33
2023-05-12T18:22:32.626Z,3.70
2023-05-12T18:24:58.965Z,4.25
2023-05-12T18:27:25.334Z,3.55
2023-05-12T18:29:51.635Z,2.50
2023-05-12T18:32:17.980Z,3.00
2023-05-12T18:34:44.315Z,3.65
2023-05-12T18:37:11.141Z,3.00
2023-05-12T18:39:37.565Z,3.22
2023-05-12T18:42:04.093Z,6.80
2023-05-12T18:44:30.476Z,2.20
2023-05-12T18:46:56.875Z,2.55
2023-05-12T18:49:23.270Z,2.05
2023-05-12T18:51:49.648Z,3.20
2023-05-12T18:54:15.981Z,2.58
2023-05-12T18:56:42.319Z,4.43
2023-05-12T18:59:08.655Z,4.20
2023-05-12T19:01:35.191Z,5.57
2023-05-12T19:04:01.665Z,4.40
2023-05-12T19:06:28.060Z,3.75
2023-05-12T19:08:54.397Z,3.30
2023-05-12T19:11:20.706Z,5.45
2023-05-12T19:13:47.021Z,2.95
2023-05-12T19:16:13.466Z,4.07
2023-05-12T19:18:39.922Z,3.80
2023-05-12T19:21:06.416Z,3.03
2023-05-12T19:23:32.808Z,2.72
2023-05-12T19:25:59.637Z,4.82
2023-05-12T19:28:25.972Z,3.45
2023-05-12T19:30:52.504Z,3.50
2023-05-12T19:33:18.892Z,4.45
2023-05-12T19:35:45.332Z,3.05
2023-05-12T19:38:11.711Z,4.00
2023-05-12T19:40:38.150Z,3.17
2023-05-12T19:43:04.681Z,2.88
2023-05-12T19:45:31.084Z,3.50
2023-05-12T19:47:57.522Z,3.63
2023-05-12T19:50:24.004Z,3.88
2023-05-12T19:52:50.719Z,8.98
2023-05-12T19:55:17.122Z,3.05
2023-05-12T19:57:43.511Z,3.13
2023-05-12T20:00:10.459Z,3.25
2023-05-12T20:02:37.106Z,4.40
2023-05-12T20:05:03.936Z,2.60
2023-05-12T20:07:30.292Z,3.40
2023-05-12T20:09:56.720Z,5.32
2023-05-12T20:12:23.079Z,3.47
2023-05-12T20:14:49.442Z,3.20
2023-05-12T20:17:15.783Z,3.75
2023-05-12T20:19:42.176Z,3.28
2023-05-12T20:22:08.474Z,2.58
2023-05-12T20:24:34.788Z,3.83
2023-05-12T20:27:01.140Z,3.95
2023-05-12T20:29:27.492Z,2.78
2023-05-12T20:31:54.189Z,3.05
2023-05-12T20:34:20.798Z,3.10
2023-05-12T20:36:47.255Z,3.78
2023-05-12T20:39:14.388Z,3.38
2023-05-12T20:41:42.433Z,6.32
2023-05-12T20:44:09.334Z,4.13
2023-05-12T20:46:38.243Z,5.03
2023-05-12T20:49:06.531Z,4.50
2023-05-12T20:51:32.899Z,6.57
2023-05-12T20:53:59.276Z,5.28
2023-05-12T20:56:25.726Z,5.88
2023-05-12T20:58:52.308Z,4.68
2023-05-12T21:01:18.975Z,4.22
2023-05-12T21:03:45.400Z,3.78
2023-05-12T21:06:11.829Z,4.90
2023-05-12T21:08:38.566Z,4.15
2023-05-12T21:11:13.406Z,4.45
2023-05-12T21:13:39.891Z,2.85
2023-05-12T21:16:06.249Z,4.47
2023-05-12T21:18:32.642Z,4.00
2023-05-12T21:20:58.997Z,5.45
2023-05-12T21:23:25.389Z,2.95
2023-05-12T21:25:55.364Z,3.47
2023-05-12T21:28:21.680Z,2.58
2023-05-12T21:30:47.980Z,2.88
2023-05-12T21:33:14.492Z,4.20
2023-05-12T21:35:40.759Z,4.53
2023-05-12T21:38:07.068Z,3.13
2023-05-12T21:40:33.371Z,2.95
2023-05-12T21:42:59.690Z,3.05
2023-05-12T21:45:26.080Z,3.35
2023-05-12T21:47:52.598Z,3.33
2023-05-12T21:50:19.109Z,4.57
2023-05-12T21:52:45.487Z,2.70
2023-05-12T21:55:11.932Z,3.15
2023-05-12T21:57:38.617Z,2.92
2023-05-12T22:00:06.625Z,3.38
2023-05-12T22:02:33.392Z,4.63
2023-05-12T22:04:59.702Z,2.95
2023-05-12T22:07:25.994Z,4.07
2023-05-12T22:09:52.464Z,3.15
2023-05-12T22:12:18.774Z,4.18
2023-05-12T22:14:45.210Z,4.07
2023-05-12T22:17:11.496Z,3.95
2023-05-12T22:19:37.987Z,3.85
2023-05-12T22:22:04.508Z,3.58
2023-05-12T22:24:30.797Z,3.53
2023-05-12T22:26:57.109Z,3.28
2023-05-12T22:29:23.578Z,3.33
2023-05-12T22:31:49.908Z,3.65
2023-05-12T22:34:16.278Z,4.85
2023-05-12T22:36:42.669Z,4.28
2023-05-12T22:39:08.989Z,3.83
2023-05-12T22:41:35.440Z,4.60
2023-05-12T22:44:01.722Z,5.30
2023-05-12T22:46:28.098Z,5.78
2023-05-12T22:48:54.583Z,4.68
2023-05-12T22:51:20.874Z,4.10
2023-05-12T22:53:47.193Z,3.92
2023-05-12T22:56:13.494Z,6.40
2023-05-12T22:58:39.845Z,5.28
2023-05-12T23:01:06.329Z,4.20
2023-05-12T23:03:32.723Z,5.32
2023-05-12T23:05:59.026Z,4.45
2023-05-12T23:08:25.316Z,5.10
2023-05-12T23:10:51.586Z,4.35
2023-05-12T23:13:17.982Z,4.68
2023-05-12T23:15:44.320Z,5.30
2023-05-12T23:18:10.739Z,4.95
2023-05-12T23:20:37.063Z,4.68
2023-05-12T23:23:03.373Z,4.78
2023-05-12T23:25:29.952Z,5.32
2023-05-12T23:27:56.327Z,5.03
2023-05-12T23:30:22.850Z,3.88
2023-05-12T23:32:49.422Z,4.47
2023-05-12T23:35:15.768Z,4.82
2023-05-12T23:37:42.059Z,4.15
2023-05-12T23:40:09.158Z,4.90
2023-05-12T23:42:35.446Z,4.35
2023-05-12T23:45:01.774Z,5.75
2023-05-12T23:47:28.110Z,4.82
2023-05-12T23:49:54.554Z,5.65
2023-05-12T23:52:20.813Z,7.80
2023-05-12T23:54:47.126Z,6.15
2023-05-12T23:57:13.463Z,4.63
2023-05-12T23:59:39.908Z,5.78
